ADDS METAR Data INFO
IDs: Format: Raw Decoded Include TAF

Data at: 0901 UTC 20 Oct 2017

KMZZ 200856Z AUTO 00000KT 5SM BR CLR 08/07 A3023 RMK AO2
KMZZ 200836Z AUTO 14003KT 7SM CLR 08/07 A3023 RMK AO2
KMZZ 200716Z AUTO 17004KT 7SM CLR 07/07 A3023 RMK AO2
KMZZ 200616Z AUTO 00000KT 10SM CLR 09/08 A3022 RMK AO2
KMZZ 200556Z AUTO 00000KT 7SM CLR 09/08 A3022 RMK AO2
KMZZ 200536Z AUTO 00000KT 5SM BR CLR 09/08 A3023 RMK AO2
KMZZ 200516Z AUTO 00000KT 7SM CLR 09/08 A3022 RMK AO2
KMZZ 200456Z AUTO 00000KT 5SM BR CLR 10/08 A3022 RMK AO2
KMZZ 200436Z AUTO 00000KT 5SM BR CLR 09/08 A3022 RMK AO2
KMZZ 200416Z AUTO 00000KT 7SM CLR 09/08 A3022 RMK AO2
KMZZ 200356Z AUTO 00000KT 7SM CLR 09/07 A3022 RMK AO2
KMZZ 200336Z AUTO 17004KT 7SM CLR 10/08 A3022 RMK AO2
KMZZ 200317Z AUTO 00000KT 10SM CLR 10/09 A3021 RMK AO2
KMZZ 200256Z AUTO 00000KT 7SM CLR 10/08 A3021 RMK AO2
KMZZ 200216Z AUTO 00000KT 10SM CLR 11/09 A3021 RMK AO2
KMZZ 200136Z AUTO 00000KT 5SM HZ CLR 12/09 A3021 RMK AO2
KMZZ 200037Z AUTO 00000KT 7SM CLR 14/09 A3021 RMK AO2
KMZZ 192336Z AUTO 00000KT 7SM CLR 17/10 A3020 RMK AO2
KMZZ 192316Z AUTO 30003KT 7SM CLR 18/10 A3019 RMK AO2
KMZZ 192236Z AUTO 30004KT 5SM HZ CLR 21/10 A3019 RMK AO2
KMZZ 192136Z AUTO 29007KT 7SM CLR 22/09 A3018 RMK AO2
KMZZ 192116Z AUTO 29008KT 10SM CLR 23/09 A3017 RMK AO2
KMZZ 192056Z AUTO 27009KT 10SM CLR 23/09 A3017 RMK AO2
KMZZ 192037Z AUTO 29008KT 10SM CLR 23/09 A3018 RMK AO2
KMZZ 191916Z AUTO 25008KT 10SM CLR 22/09 A3017 RMK AO2
KMZZ 191836Z AUTO 27006KT 7SM CLR 22/09 A3018 RMK AO2
KMZZ 191757Z AUTO 24008KT 7SM CLR 21/09 A3019 RMK AO2
KMZZ 191736Z AUTO 29005KT 7SM CLR 21/09 A3019 RMK AO2
KMZZ 191557Z AUTO 26008KT 7SM CLR 19/09 A3019 RMK AO2
KMZZ 191536Z AUTO 26010KT 7SM CLR 18/09 A3019 RMK AO2
KMZZ 191336Z AUTO 22008KT 10SM CLR 12/09 A3019 RMK AO2
KMZZ 191236Z AUTO 21005KT 10SM CLR 09/08 A3017 RMK AO2
KMZZ 191216Z AUTO 20006KT 7SM CLR 08/07 A3016 RMK AO2
KMZZ 191116Z AUTO 21008KT 10SM CLR 09/07 A3015 RMK AO2
KMZZ 191056Z AUTO 21008KT 7SM CLR 09/07 A3015 RMK AO2
KMZZ 190937Z AUTO 21009KT 7SM CLR 09/07 A3014 RMK AO2
KMZZ 190917Z AUTO 21009KT 10SM CLR 09/07 A3014 RMK AO2
KMZZ 190757Z AUTO 20005KT 5SM HZ CLR 09/07 A3015 RMK AO2
KMZZ 190716Z AUTO 21006KT 7SM CLR 09/07 A3016 RMK AO2
KMZZ 190656Z AUTO 20008KT 7SM CLR 09/07 A3015 RMK AO2
KMZZ 190636Z AUTO 20004KT 10SM CLR 09/07 A3016 RMK AO2
KMZZ 190617Z AUTO 20008KT 5SM HZ CLR 10/07 A3015 RMK AO2
KMZZ 190557Z AUTO 20008KT 7SM CLR 10/07 A3015 RMK AO2
KMZZ 190536Z AUTO 19008KT 10SM CLR 09/07 A3015 RMK AO2
KMZZ 190516Z AUTO 19007KT 5SM CLR 09/06 A3016 RMK AO2
KMZZ 190436Z AUTO 19005KT 5SM BR CLR 09/06 A3016 RMK AO2
KMZZ 190417Z AUTO 20005KT 10SM CLR 09/06 A3016 RMK AO2
KMZZ 190358Z AUTO 20005KT 10SM CLR 08/06 A3016 RMK AO2
KMZZ 190336Z AUTO 19004KT 7SM CLR 08/06 A3016 RMK AO2
KMZZ 190318Z AUTO 21007KT 5SM HZ CLR 09/06 A3016 RMK AO2
KMZZ 190237Z AUTO 20006KT 7SM CLR 11/06 A3016 RMK AO2
KMZZ 190157Z AUTO 20007KT 5SM HZ CLR 12/06 A3015 RMK AO2
KMZZ 190137Z AUTO 20007KT 5SM HZ CLR 11/06 A3015 RMK AO2
KMZZ 190117Z AUTO 19007KT 5SM HZ CLR 12/06 A3016 RMK AO2
KMZZ 190016Z AUTO 18006KT 7SM CLR 12/06 A3015 RMK AO2
KMZZ 182357Z AUTO 19005KT 10SM CLR 12/06 A3015 RMK AO2
KMZZ 182336Z AUTO 19004KT 7SM CLR 12/06 A3015 RMK AO2
KMZZ 182316Z AUTO 18006KT 5SM CLR 14/06 A3015 RMK AO2
KMZZ 182216Z AUTO 21009KT 4SM HZ CLR 18/05 A3016 RMK AO2